sensor_id;sensor_type;location;lat;lon;timestamp;temperature;humidity
14893;DHT22;7538;53.626;9.906;2024-02-26T00:00:20;4.40;99.90
14893;DHT22;7538;53.626;9.906;2024-02-26T00:02:48;4.30;99.90
14893;DHT22;7538;53.626;9.906;2024-02-26T00:05:14;4.20;99.90
14893;DHT22;7538;53.626;9.906;2024-02-26T00:07:41;4.20;99.90
14893;DHT22;7538;53.626;9.906;2024-02-26T00:10:09;4.20;99.90
14893;DHT22;7538;53.626;9.906;2024-02-26T00:12:36;6.10;99.90
14893;DHT22;7538;53.626;9.906;2024-02-26T00:15:05;4.10;99.90
14893;DHT22;7538;53.626;9.906;2024-02-26T00:17:33;4.00;99.90
14893;DHT22;7538;53.626;9.906;2024-02-26T00:20:00;4.00;99.90
14893;DHT22;7538;53.626;9.906;2024-02-26T00:22:29;4.00;99.90
14893;DHT22;7538;53.626;9.906;2024-02-26T00:24:56;3.90;99.90
14893;DHT22;7538;53.626;9.906;2024-02-26T00:27:23;3.90;99.90
14893;DHT22;7538;53.626;9.906;2024-02-26T00:29:50;3.80;99.90
14893;DHT22;7538;53.626;9.906;2024-02-26T00:32:17;3.80;99.90
14893;DHT22;7538;53.626;9.906;2024-02-26T00:34:45;6.20;99.90
14893;DHT22;7538;53.626;9.906;2024-02-26T00:37:12;3.70;99.90
14893;DHT22;7538;53.626;9.906;2024-02-26T00:39:39;3.70;99.90
14893;DHT22;7538;53.626;9.906;2024-02-26T00:42:06;3.70;99.90
14893;DHT22;7538;53.626;9.906;2024-02-26T00:44:32;3.60;99.90
14893;DHT22;7538;53.626;9.906;2024-02-26T00:46:59;3.70;99.90
14893;DHT22;7538;53.626;9.906;2024-02-26T00:49:26;4.80;99.90
14893;DHT22;7538;53.626;9.906;2024-02-26T00:51:54;3.60;99.90
14893;DHT22;7538;53.626;9.906;2024-02-26T00:54:22;3.60;99.90
14893;DHT22;7538;53.626;9.906;2024-02-26T00:56:49;3.50;99.90
14893;DHT22;7538;53.626;9.906;2024-02-26T00:59:15;3.50;99.90
14893;DHT22;7538;53.626;9.906;2024-02-26T01:01:42;3.40;99.90
14893;DHT22;7538;53.626;9.906;2024-02-26T01:04:09;3.40;99.90
14893;DHT22;7538;53.626;9.906;2024-02-26T01:06:37;3.40;99.90
14893;DHT22;7538;53.626;9.906;2024-02-26T01:09:06;3.70;99.90
14893;DHT22;7538;53.626;9.906;2024-02-26T01:11:33;3.30;99.90
14893;DHT22;7538;53.626;9.906;2024-02-26T01:14:00;3.20;99.90
14893;DHT22;7538;53.626;9.906;2024-02-26T01:16:27;3.20;99.90
14893;DHT22;7538;53.626;9.906;2024-02-26T01:18:54;3.20;99.90
14893;DHT22;7538;53.626;9.906;2024-02-26T01:21:21;3.10;99.90
14893;DHT22;7538;53.626;9.906;2024-02-26T01:23:48;3.20;99.90
14893;DHT22;7538;53.626;9.906;2024-02-26T01:26:16;3.20;99.90
14893;DHT22;7538;53.626;9.906;2024-02-26T01:28:43;3.10;99.90
14893;DHT22;7538;53.626;9.906;2024-02-26T01:31:10;3.10;99.90
14893;DHT22;7538;53.626;9.906;2024-02-26T01:33:37;3.10;99.90
14893;DHT22;7538;53.626;9.906;2024-02-26T01:36:04;3.00;99.90
14893;DHT22;7538;53.626;9.906;2024-02-26T01:38:31;3.00;99.90
14893;DHT22;7538;53.626;9.906;2024-02-26T01:40:58;4.70;99.90
14893;DHT22;7538;53.626;9.906;2024-02-26T01:43:26;3.00;99.90
14893;DHT22;7538;53.626;9.906;2024-02-26T01:45:53;2.90;99.90
14893;DHT22;7538;53.626;9.906;2024-02-26T01:48:21;2.90;99.90
14893;DHT22;7538;53.626;9.906;2024-02-26T01:50:47;2.90;99.90
14893;DHT22;7538;53.626;9.906;2024-02-26T01:53:16;2.80;99.90
14893;DHT22;7538;53.626;9.906;2024-02-26T01:55:43;2.80;99.90
14893;DHT22;7538;53.626;9.906;2024-02-26T01:58:10;2.80;99.90
14893;DHT22;7538;53.626;9.906;2024-02-26T02:00:39;2.80;99.90
14893;DHT22;7538;53.626;9.906;2024-02-26T02:03:06;2.80;99.90
14893;DHT22;7538;53.626;9.906;2024-02-26T02:05:33;2.80;99.90
14893;DHT22;7538;53.626;9.906;2024-02-26T02:08:00;2.70;99.90
14893;DHT22;7538;53.626;9.906;2024-02-26T02:10:29;2.70;99.90
14893;DHT22;7538;53.626;9.906;2024-02-26T02:12:56;2.70;99.90
14893;DHT22;7538;53.626;9.906;2024-02-26T02:15:23;2.70;99.90
14893;DHT22;7538;53.626;9.906;2024-02-26T02:17:51;2.70;99.90
14893;DHT22;7538;53.626;9.906;2024-02-26T02:20:18;2.70;99.90
14893;DHT22;7538;53.626;9.906;2024-02-26T02:22:46;2.60;99.90
14893;DHT22;7538;53.626;9.906;2024-02-26T02:25:13;2.60;99.90
14893;DHT22;7538;53.626;9.906;2024-02-26T02:27:41;2.70;99.90
14893;DHT22;7538;53.626;9.906;2024-02-26T02:30:10;2.60;99.90
14893;DHT22;7538;53.626;9.906;2024-02-26T02:32:38;2.50;99.90
14893;DHT22;7538;53.626;9.906;2024-02-26T02:35:06;2.60;99.90
14893;DHT22;7538;53.626;9.906;2024-02-26T02:37:33;2.50;99.90
14893;DHT22;7538;53.626;9.906;2024-02-26T02:40:01;2.50;99.90
14893;DHT22;7538;53.626;9.906;2024-02-26T02:42:28;2.50;99.90
14893;DHT22;7538;53.626;9.906;2024-02-26T02:44:55;2.60;99.90
14893;DHT22;7538;53.626;9.906;2024-02-26T02:47:22;2.50;99.90
14893;DHT22;7538;53.626;9.906;2024-02-26T02:49:49;3.00;99.90
14893;DHT22;7538;53.626;9.906;2024-02-26T02:52:16;2.40;99.90
14893;DHT22;7538;53.626;9.906;2024-02-26T02:54:43;2.70;99.90
14893;DHT22;7538;53.626;9.906;2024-02-26T02:57:11;4.30;99.90
14893;DHT22;7538;53.626;9.906;2024-02-26T02:59:38;2.40;99.90
14893;DHT22;7538;53.626;9.906;2024-02-26T03:02:05;3.90;99.90
14893;DHT22;7538;53.626;9.906;2024-02-26T03:04:33;2.40;99.90
14893;DHT22;7538;53.626;9.906;2024-02-26T03:06:59;2.30;99.90
14893;DHT22;7538;53.626;9.906;2024-02-26T03:09:26;2.30;99.90
14893;DHT22;7538;53.626;9.906;2024-02-26T03:11:53;2.30;99.90
14893;DHT22;7538;53.626;9.906;2024-02-26T03:14:22;2.30;99.90
14893;DHT22;7538;53.626;9.906;2024-02-26T03:16:49;2.20;99.90
14893;DHT22;7538;53.626;9.906;2024-02-26T03:19:15;2.60;99.90
14893;DHT22;7538;53.626;9.906;2024-02-26T03:21:42;2.20;99.90
14893;DHT22;7538;53.626;9.906;2024-02-26T03:24:09;2.20;99.90
14893;DHT22;7538;53.626;9.906;2024-02-26T03:26:37;2.20;99.90
14893;DHT22;7538;53.626;9.906;2024-02-26T03:29:04;2.20;99.90
14893;DHT22;7538;53.626;9.906;2024-02-26T03:31:33;2.20;99.90
14893;DHT22;7538;53.626;9.906;2024-02-26T03:33:59;2.10;99.90
14893;DHT22;7538;53.626;9.906;2024-02-26T03:36:26;-0.70;99.90
14893;DHT22;7538;53.626;9.906;2024-02-26T03:38:52;2.10;99.90
14893;DHT22;7538;53.626;9.906;2024-02-26T03:41:19;2.10;99.90
14893;DHT22;7538;53.626;9.906;2024-02-26T03:43:46;2.10;99.90
14893;DHT22;7538;53.626;9.906;2024-02-26T03:46:13;3.60;99.90
14893;DHT22;7538;53.626;9.906;2024-02-26T03:48:41;2.00;99.90
14893;DHT22;7538;53.626;9.906;2024-02-26T03:51:09;2.10;99.90
14893;DHT22;7538;53.626;9.906;2024-02-26T03:53:43;2.00;99.90
14893;DHT22;7538;53.626;9.906;2024-02-26T03:56:11;2.00;99.90
14893;DHT22;7538;53.626;9.906;2024-02-26T03:58:38;1.90;99.90
14893;DHT22;7538;53.626;9.906;2024-02-26T04:01:07;2.00;99.90
14893;DHT22;7538;53.626;9.906;2024-02-26T04:03:34;1.90;99.90
14893;DHT22;7538;53.626;9.906;2024-02-26T04:06:03;2.00;99.90
14893;DHT22;7538;53.626;9.906;2024-02-26T04:08:30;1.90;99.90
14893;DHT22;7538;53.626;9.906;2024-02-26T04:10:57;1.90;99.90
14893;DHT22;7538;53.626;9.906;2024-02-26T04:13:24;1.90;99.90
14893;DHT22;7538;53.626;9.906;2024-02-26T04:15:51;1.90;99.90
14893;DHT22;7538;53.626;9.906;2024-02-26T04:18:18;1.90;99.90
14893;DHT22;7538;53.626;9.906;2024-02-26T04:20:45;1.90;99.90
14893;DHT22;7538;53.626;9.906;2024-02-26T04:23:13;1.90;99.90
14893;DHT22;7538;53.626;9.906;2024-02-26T04:25:40;1.90;99.90
14893;DHT22;7538;53.626;9.906;2024-02-26T04:28:07;2.90;99.90
14893;DHT22;7538;53.626;9.906;2024-02-26T04:30:33;3.40;99.90
14893;DHT22;7538;53.626;9.906;2024-02-26T04:33:00;1.90;99.90
14893;DHT22;7538;53.626;9.906;2024-02-26T04:35:27;1.90;99.90
14893;DHT22;7538;53.626;9.906;2024-02-26T04:38:00;1.90;99.90
14893;DHT22;7538;53.626;9.906;2024-02-26T04:40:28;1.80;99.90
14893;DHT22;7538;53.626;9.906;2024-02-26T04:42:55;2.00;99.90
14893;DHT22;7538;53.626;9.906;2024-02-26T04:45:22;1.80;99.90
14893;DHT22;7538;53.626;9.906;2024-02-26T04:47:49;2.10;99.90
14893;DHT22;7538;53.626;9.906;2024-02-26T04:50:16;3.10;99.90
14893;DHT22;7538;53.626;9.906;2024-02-26T04:52:43;1.80;99.90
14893;DHT22;7538;53.626;9.906;2024-02-26T04:55:10;1.80;99.90
14893;DHT22;7538;53.626;9.906;2024-02-26T04:57:38;1.80;99.90
14893;DHT22;7538;53.626;9.906;2024-02-26T05:00:06;1.80;99.90
14893;DHT22;7538;53.626;9.906;2024-02-26T05:02:33;1.80;99.90
14893;DHT22;7538;53.626;9.906;2024-02-26T05:05:04;1.80;99.90
14893;DHT22;7538;53.626;9.906;2024-02-26T05:07:31;1.90;99.90
14893;DHT22;7538;53.626;9.906;2024-02-26T05:09:57;1.90;99.90
14893;DHT22;7538;53.626;9.906;2024-02-26T05:12:24;1.90;99.90
14893;DHT22;7538;53.626;9.906;2024-02-26T05:14:53;1.90;99.90
14893;DHT22;7538;53.626;9.906;2024-02-26T05:17:20;1.90;99.90
14893;DHT22;7538;53.626;9.906;2024-02-26T05:19:46;1.90;99.90
14893;DHT22;7538;53.626;9.906;2024-02-26T05:22:13;1.90;99.90
14893;DHT22;7538;53.626;9.906;2024-02-26T05:24:41;1.90;99.90
14893;DHT22;7538;53.626;9.906;2024-02-26T05:27:08;1.90;99.90
14893;DHT22;7538;53.626;9.906;2024-02-26T05:29:35;1.90;99.90
14893;DHT22;7538;53.626;9.906;2024-02-26T05:32:03;1.90;99.90
14893;DHT22;7538;53.626;9.906;2024-02-26T05:34:30;1.90;99.90
14893;DHT22;7538;53.626;9.906;2024-02-26T05:36:58;2.40;99.90
14893;DHT22;7538;53.626;9.906;2024-02-26T05:39:25;1.90;99.90
14893;DHT22;7538;53.626;9.906;2024-02-26T05:41:52;2.00;99.90
14893;DHT22;7538;53.626;9.906;2024-02-26T05:44:22;4.00;99.90
14893;DHT22;7538;53.626;9.906;2024-02-26T05:46:49;2.00;99.90
14893;DHT22;7538;53.626;9.906;2024-02-26T05:49:17;2.00;99.90
14893;DHT22;7538;53.626;9.906;2024-02-26T05:51:44;2.00;99.90
14893;DHT22;7538;53.626;9.906;2024-02-26T05:54:11;2.00;99.90
14893;DHT22;7538;53.626;9.906;2024-02-26T05:56:37;2.00;99.90
14893;DHT22;7538;53.626;9.906;2024-02-26T05:59:04;2.00;99.90
14893;DHT22;7538;53.626;9.906;2024-02-26T06:01:31;2.00;99.90
14893;DHT22;7538;53.626;9.906;2024-02-26T06:03:58;-0.50;99.90
14893;DHT22;7538;53.626;9.906;2024-02-26T06:06:27;2.00;99.90
14893;DHT22;7538;53.626;9.906;2024-02-26T06:08:53;2.10;99.90
14893;DHT22;7538;53.626;9.906;2024-02-26T06:11:20;2.10;99.90
14893;DHT22;7538;53.626;9.906;2024-02-26T06:13:48;2.10;99.90
14893;DHT22;7538;53.626;9.906;2024-02-26T06:16:15;2.20;99.90
14893;DHT22;7538;53.626;9.906;2024-02-26T06:18:42;2.10;99.90
14893;DHT22;7538;53.626;9.906;2024-02-26T06:21:09;2.10;99.90
14893;DHT22;7538;53.626;9.906;2024-02-26T06:23:38;2.30;99.90
14893;DHT22;7538;53.626;9.906;2024-02-26T06:26:05;2.10;99.90
14893;DHT22;7538;53.626;9.906;2024-02-26T06:28:32;2.20;99.90
14893;DHT22;7538;53.626;9.906;2024-02-26T06:31:01;2.20;99.90
14893;DHT22;7538;53.626;9.906;2024-02-26T06:33:30;2.20;99.90
14893;DHT22;7538;53.626;9.906;2024-02-26T06:35:57;2.30;99.90
14893;DHT22;7538;53.626;9.906;2024-02-26T06:38:24;2.20;99.90
14893;DHT22;7538;53.626;9.906;2024-02-26T06:40:52;2.30;99.90
14893;DHT22;7538;53.626;9.906;2024-02-26T06:43:19;2.30;99.90
14893;DHT22;7538;53.626;9.906;2024-02-26T06:45:46;2.30;99.90
14893;DHT22;7538;53.626;9.906;2024-02-26T06:48:13;2.30;99.90
14893;DHT22;7538;53.626;9.906;2024-02-26T06:50:40;2.50;99.90
14893;DHT22;7538;53.626;9.906;2024-02-26T06:53:07;2.40;99.90
14893;DHT22;7538;53.626;9.906;2024-02-26T06:55:34;2.40;99.90
14893;DHT22;7538;53.626;9.906;2024-02-26T06:58:02;2.50;99.90
14893;DHT22;7538;53.626;9.906;2024-02-26T07:00:29;2.60;99.90
14893;DHT22;7538;53.626;9.906;2024-02-26T07:02:55;3.20;99.90
14893;DHT22;7538;53.626;9.906;2024-02-26T07:05:22;2.60;99.90
14893;DHT22;7538;53.626;9.906;2024-02-26T07:07:49;2.70;99.90
14893;DHT22;7538;53.626;9.906;2024-02-26T07:10:16;1.90;99.90
14893;DHT22;7538;53.626;9.906;2024-02-26T07:12:43;3.90;99.90
14893;DHT22;7538;53.626;9.906;2024-02-26T07:15:11;3.00;99.90
14893;DHT22;7538;53.626;9.906;2024-02-26T07:17:38;5.10;99.90
14893;DHT22;7538;53.626;9.906;2024-02-26T07:20:08;2.90;99.90
14893;DHT22;7538;53.626;9.906;2024-02-26T07:22:35;2.90;99.90
14893;DHT22;7538;53.626;9.906;2024-02-26T07:25:02;3.00;99.90
14893;DHT22;7538;53.626;9.906;2024-02-26T07:27:29;3.00;99.90
14893;DHT22;7538;53.626;9.906;2024-02-26T07:29:56;3.10;99.90
14893;DHT22;7538;53.626;9.906;2024-02-26T07:32:24;3.70;99.90
14893;DHT22;7538;53.626;9.906;2024-02-26T07:34:51;3.20;99.90
14893;DHT22;7538;53.626;9.906;2024-02-26T07:37:17;3.30;99.90
14893;DHT22;7538;53.626;9.906;2024-02-26T07:39:44;3.40;99.90
14893;DHT22;7538;53.626;9.906;2024-02-26T07:42:11;3.40;99.90
14893;DHT22;7538;53.626;9.906;2024-02-26T07:44:38;3.40;99.90
14893;DHT22;7538;53.626;9.906;2024-02-26T07:47:08;3.40;99.90
14893;DHT22;7538;53.626;9.906;2024-02-26T07:49:36;3.50;99.90
14893;DHT22;7538;53.626;9.906;2024-02-26T07:52:03;3.60;99.90
14893;DHT22;7538;53.626;9.906;2024-02-26T07:54:30;3.70;99.90
14893;DHT22;7538;53.626;9.906;2024-02-26T07:56:57;3.90;99.90
14893;DHT22;7538;53.626;9.906;2024-02-26T07:59:24;3.90;99.90
14893;DHT22;7538;53.626;9.906;2024-02-26T08:01:51;4.00;99.90
14893;DHT22;7538;53.626;9.906;2024-02-26T08:04:18;4.20;99.90
14893;DHT22;7538;53.626;9.906;2024-02-26T08:06:46;4.30;99.90
14893;DHT22;7538;53.626;9.906;2024-02-26T08:09:13;4.40;99.90
14893;DHT22;7538;53.626;9.906;2024-02-26T08:11:40;4.40;99.90
14893;DHT22;7538;53.626;9.906;2024-02-26T08:14:06;4.50;99.90
14893;DHT22;7538;53.626;9.906;2024-02-26T08:16:33;4.60;99.90
14893;DHT22;7538;53.626;9.906;2024-02-26T08:19:00;4.70;99.90
14893;DHT22;7538;53.626;9.906;2024-02-26T08:21:27;4.70;99.90
14893;DHT22;7538;53.626;9.906;2024-02-26T08:23:56;4.70;99.90
14893;DHT22;7538;53.626;9.906;2024-02-26T08:26:22;4.80;99.90
14893;DHT22;7538;53.626;9.906;2024-02-26T08:28:49;4.80;99.90
14893;DHT22;7538;53.626;9.906;2024-02-26T08:31:17;4.80;99.90
14893;DHT22;7538;53.626;9.906;2024-02-26T08:33:43;4.80;99.90
14893;DHT22;7538;53.626;9.906;2024-02-26T08:36:11;4.80;99.90
14893;DHT22;7538;53.626;9.906;2024-02-26T08:38:38;4.90;99.90
14893;DHT22;7538;53.626;9.906;2024-02-26T08:41:06;4.90;99.90
14893;DHT22;7538;53.626;9.906;2024-02-26T08:43:33;4.90;99.90
14893;DHT22;7538;53.626;9.906;2024-02-26T08:46:00;5.00;99.90
14893;DHT22;7538;53.626;9.906;2024-02-26T08:48:27;5.00;99.90
14893;DHT22;7538;53.626;9.906;2024-02-26T08:50:54;5.10;99.90
14893;DHT22;7538;53.626;9.906;2024-02-26T08:53:21;5.10;99.90
14893;DHT22;7538;53.626;9.906;2024-02-26T08:55:48;5.20;99.90
14893;DHT22;7538;53.626;9.906;2024-02-26T08:58:16;5.30;99.90
14893;DHT22;7538;53.626;9.906;2024-02-26T09:00:43;5.40;99.90
14893;DHT22;7538;53.626;9.906;2024-02-26T09:03:10;5.50;99.90
14893;DHT22;7538;53.626;9.906;2024-02-26T09:05:37;5.60;99.90
14893;DHT22;7538;53.626;9.906;2024-02-26T09:08:04;5.70;99.90
14893;DHT22;7538;53.626;9.906;2024-02-26T09:10:31;5.70;99.90
14893;DHT22;7538;53.626;9.906;2024-02-26T09:12:59;5.90;99.90
14893;DHT22;7538;53.626;9.906;2024-02-26T09:15:27;6.00;99.90
14893;DHT22;7538;53.626;9.906;2024-02-26T09:17:54;6.20;99.90
14893;DHT22;7538;53.626;9.906;2024-02-26T09:20:21;6.40;99.90
14893;DHT22;7538;53.626;9.906;2024-02-26T09:22:49;6.50;99.90
14893;DHT22;7538;53.626;9.906;2024-02-26T09:25:16;6.50;99.90
14893;DHT22;7538;53.626;9.906;2024-02-26T09:27:43;6.60;99.90
14893;DHT22;7538;53.626;9.906;2024-02-26T09:30:11;6.70;99.90
14893;DHT22;7538;53.626;9.906;2024-02-26T09:32:40;6.80;99.90
14893;DHT22;7538;53.626;9.906;2024-02-26T09:35:07;6.90;99.90
14893;DHT22;7538;53.626;9.906;2024-02-26T09:37:34;6.90;99.90
14893;DHT22;7538;53.626;9.906;2024-02-26T09:40:03;7.00;99.90
14893;DHT22;7538;53.626;9.906;2024-02-26T09:42:31;7.10;99.90
14893;DHT22;7538;53.626;9.906;2024-02-26T09:45:00;7.10;99.90
14893;DHT22;7538;53.626;9.906;2024-02-26T09:47:31;7.10;99.90
14893;DHT22;7538;53.626;9.906;2024-02-26T09:50:00;7.10;99.90
14893;DHT22;7538;53.626;9.906;2024-02-26T09:52:28;7.10;99.90
14893;DHT22;7538;53.626;9.906;2024-02-26T09:54:57;7.00;99.90
14893;DHT22;7538;53.626;9.906;2024-02-26T09:57:25;6.90;99.90
14893;DHT22;7538;53.626;9.906;2024-02-26T09:59:54;6.90;99.90
14893;DHT22;7538;53.626;9.906;2024-02-26T10:02:25;7.00;99.90
14893;DHT22;7538;53.626;9.906;2024-02-26T10:04:53;7.10;99.90
14893;DHT22;7538;53.626;9.906;2024-02-26T10:07:26;7.10;99.90
14893;DHT22;7538;53.626;9.906;2024-02-26T10:09:55;7.10;99.90
14893;DHT22;7538;53.626;9.906;2024-02-26T10:12:23;7.10;99.90
14893;DHT22;7538;53.626;9.906;2024-02-26T10:14:51;7.20;99.90
14893;DHT22;7538;53.626;9.906;2024-02-26T10:17:19;7.10;99.90
14893;DHT22;7538;53.626;9.906;2024-02-26T10:19:46;7.10;99.90
14893;DHT22;7538;53.626;9.906;2024-02-26T10:22:13;7.20;99.90
14893;DHT22;7538;53.626;9.906;2024-02-26T10:24:41;7.20;99.90
14893;DHT22;7538;53.626;9.906;2024-02-26T10:27:08;7.20;99.90
14893;DHT22;7538;53.626;9.906;2024-02-26T10:29:35;7.30;99.90
14893;DHT22;7538;53.626;9.906;2024-02-26T10:32:03;7.40;99.90
14893;DHT22;7538;53.626;9.906;2024-02-26T10:34:30;7.50;99.90
14893;DHT22;7538;53.626;9.906;2024-02-26T10:36:57;7.60;99.90
14893;DHT22;7538;53.626;9.906;2024-02-26T10:39:24;7.70;99.90
14893;DHT22;7538;53.626;9.906;2024-02-26T10:41:52;7.80;99.90
14893;DHT22;7538;53.626;9.906;2024-02-26T10:44:22;7.90;99.90
14893;DHT22;7538;53.626;9.906;2024-02-26T10:46:48;8.00;99.90
14893;DHT22;7538;53.626;9.906;2024-02-26T10:49:16;8.20;99.90
14893;DHT22;7538;53.626;9.906;2024-02-26T10:51:47;8.40;99.90
14893;DHT22;7538;53.626;9.906;2024-02-26T10:54:16;8.50;99.90
14893;DHT22;7538;53.626;9.906;2024-02-26T10:56:43;8.50;99.90
14893;DHT22;7538;53.626;9.906;2024-02-26T10:59:16;8.60;99.90
14893;DHT22;7538;53.626;9.906;2024-02-26T11:01:46;8.70;99.90
14893;DHT22;7538;53.626;9.906;2024-02-26T11:04:15;8.90;99.90
14893;DHT22;7538;53.626;9.906;2024-02-26T11:06:42;9.00;99.90
14893;DHT22;7538;53.626;9.906;2024-02-26T11:09:12;9.10;99.90
14893;DHT22;7538;53.626;9.906;2024-02-26T11:11:40;9.20;99.90
14893;DHT22;7538;53.626;9.906;2024-02-26T11:14:11;9.20;99.90
14893;DHT22;7538;53.626;9.906;2024-02-26T11:16:41;9.40;99.90
14893;DHT22;7538;53.626;9.906;2024-02-26T11:19:09;9.50;99.90
14893;DHT22;7538;53.626;9.906;2024-02-26T11:21:36;9.60;99.90
14893;DHT22;7538;53.626;9.906;2024-02-26T11:24:09;9.30;99.90
14893;DHT22;7538;53.626;9.906;2024-02-26T11:26:41;9.40;99.90
14893;DHT22;7538;53.626;9.906;2024-02-26T11:29:11;9.60;99.90
14893;DHT22;7538;53.626;9.906;2024-02-26T11:31:42;9.80;99.90
14893;DHT22;7538;53.626;9.906;2024-02-26T11:34:11;9.90;99.90
14893;DHT22;7538;53.626;9.906;2024-02-26T11:36:38;8.80;99.90
14893;DHT22;7538;53.626;9.906;2024-02-26T11:39:06;10.20;99.90
14893;DHT22;7538;53.626;9.906;2024-02-26T11:41:33;10.30;99.90
14893;DHT22;7538;53.626;9.906;2024-02-26T11:44:01;10.40;99.90
14893;DHT22;7538;53.626;9.906;2024-02-26T11:46:29;10.40;99.90
14893;DHT22;7538;53.626;9.906;2024-02-26T11:49:03;10.50;99.90
14893;DHT22;7538;53.626;9.906;2024-02-26T11:51:51;12.70;99.90
14893;DHT22;7538;53.626;9.906;2024-02-26T11:54:38;10.20;99.90
14893;DHT22;7538;53.626;9.906;2024-02-26T11:57:23;10.10;99.90
14893;DHT22;7538;53.626;9.906;2024-02-26T11:59:50;10.00;99.90
14893;DHT22;7538;53.626;9.906;2024-02-26T12:02:45;10.00;99.90
14893;DHT22;7538;53.626;9.906;2024-02-26T12:05:15;9.90;99.90
14893;DHT22;7538;53.626;9.906;2024-02-26T12:07:44;9.90;99.90
14893;DHT22;7538;53.626;9.906;2024-02-26T12:10:17;9.80;99.90
14893;DHT22;7538;53.626;9.906;2024-02-26T12:12:45;9.80;99.90
14893;DHT22;7538;53.626;9.906;2024-02-26T12:15:12;9.70;99.90
14893;DHT22;7538;53.626;9.906;2024-02-26T12:17:41;9.80;99.90
14893;DHT22;7538;53.626;9.906;2024-02-26T12:20:08;9.80;99.90
14893;DHT22;7538;53.626;9.906;2024-02-26T12:22:38;9.60;99.90
14893;DHT22;7538;53.626;9.906;2024-02-26T12:25:07;9.50;99.90
14893;DHT22;7538;53.626;9.906;2024-02-26T12:27:35;9.30;99.90
14893;DHT22;7538;53.626;9.906;2024-02-26T12:30:02;9.20;99.90
14893;DHT22;7538;53.626;9.906;2024-02-26T12:32:29;9.00;99.90
14893;DHT22;7538;53.626;9.906;2024-02-26T12:34:59;9.00;99.90
14893;DHT22;7538;53.626;9.906;2024-02-26T12:37:27;9.00;99.90
14893;DHT22;7538;53.626;9.906;2024-02-26T12:39:56;8.90;99.90
14893;DHT22;7538;53.626;9.906;2024-02-26T12:42:23;9.00;99.90
14893;DHT22;7538;53.626;9.906;2024-02-26T12:44:50;8.90;99.90
14893;DHT22;7538;53.626;9.906;2024-02-26T12:47:17;9.00;99.90
14893;DHT22;7538;53.626;9.906;2024-02-26T12:49:47;9.00;99.90
14893;DHT22;7538;53.626;9.906;2024-02-26T12:52:14;8.90;99.90
14893;DHT22;7538;53.626;9.906;2024-02-26T12:54:41;8.90;99.90
14893;DHT22;7538;53.626;9.906;2024-02-26T12:57:10;9.00;99.90
14893;DHT22;7538;53.626;9.906;2024-02-26T12:59:37;9.00;99.90
14893;DHT22;7538;53.626;9.906;2024-02-26T13:02:05;8.80;99.90
14893;DHT22;7538;53.626;9.906;2024-02-26T13:04:32;8.70;99.90
14893;DHT22;7538;53.626;9.906;2024-02-26T13:06:59;8.70;99.90
14893;DHT22;7538;53.626;9.906;2024-02-26T13:09:33;8.80;99.90
14893;DHT22;7538;53.626;9.906;2024-02-26T13:12:00;8.90;99.90
14893;DHT22;7538;53.626;9.906;2024-02-26T13:14:28;8.90;99.90
14893;DHT22;7538;53.626;9.906;2024-02-26T13:16:57;8.80;99.90
14893;DHT22;7538;53.626;9.906;2024-02-26T13:19:24;8.90;99.90
14893;DHT22;7538;53.626;9.906;2024-02-26T13:21:51;9.10;99.90
14893;DHT22;7538;53.626;9.906;2024-02-26T13:24:19;9.20;99.90
14893;DHT22;7538;53.626;9.906;2024-02-26T13:26:53;9.50;99.90
14893;DHT22;7538;53.626;9.906;2024-02-26T13:29:20;9.40;99.90
14893;DHT22;7538;53.626;9.906;2024-02-26T13:31:53;9.40;99.90
14893;DHT22;7538;53.626;9.906;2024-02-26T13:34:24;9.40;99.90
14893;DHT22;7538;53.626;9.906;2024-02-26T13:36:52;9.50;99.90
14893;DHT22;7538;53.626;9.906;2024-02-26T13:39:22;9.50;99.90
14893;DHT22;7538;53.626;9.906;2024-02-26T13:41:50;9.60;99.90
14893;DHT22;7538;53.626;9.906;2024-02-26T13:44:17;9.70;99.90
14893;DHT22;7538;53.626;9.906;2024-02-26T13:46:49;9.80;99.90
14893;DHT22;7538;53.626;9.906;2024-02-26T13:49:16;9.80;99.90
14893;DHT22;7538;53.626;9.906;2024-02-26T13:51:43;9.80;99.90
14893;DHT22;7538;53.626;9.906;2024-02-26T13:54:09;9.90;99.90
14893;DHT22;7538;53.626;9.906;2024-02-26T13:56:37;9.90;99.90
14893;DHT22;7538;53.626;9.906;2024-02-26T13:59:04;9.80;99.90
14893;DHT22;7538;53.626;9.906;2024-02-26T14:01:31;10.00;99.90
14893;DHT22;7538;53.626;9.906;2024-02-26T14:04:00;9.60;99.90
14893;DHT22;7538;53.626;9.906;2024-02-26T14:06:27;9.60;99.90
14893;DHT22;7538;53.626;9.906;2024-02-26T14:08:56;9.50;99.90
14893;DHT22;7538;53.626;9.906;2024-02-26T14:11:22;9.50;99.90
14893;DHT22;7538;53.626;9.906;2024-02-26T14:13:51;9.50;99.90
14893;DHT22;7538;53.626;9.906;2024-02-26T14:16:17;9.50;99.90
14893;DHT22;7538;53.626;9.906;2024-02-26T14:18:45;9.50;99.90
14893;DHT22;7538;53.626;9.906;2024-02-26T14:21:14;9.60;99.90
14893;DHT22;7538;53.626;9.906;2024-02-26T14:23:41;9.60;99.90
14893;DHT22;7538;53.626;9.906;2024-02-26T14:26:10;9.40;99.90
14893;DHT22;7538;53.626;9.906;2024-02-26T14:28:37;9.40;99.90
14893;DHT22;7538;53.626;9.906;2024-02-26T14:31:05;9.30;99.90
14893;DHT22;7538;53.626;9.906;2024-02-26T14:33:32;9.30;99.90
14893;DHT22;7538;53.626;9.906;2024-02-26T14:35:59;9.20;99.90
14893;DHT22;7538;53.626;9.906;2024-02-26T14:38:27;9.20;99.90
14893;DHT22;7538;53.626;9.906;2024-02-26T14:40:54;9.10;99.90
14893;DHT22;7538;53.626;9.906;2024-02-26T14:43:21;11.10;99.90
14893;DHT22;7538;53.626;9.906;2024-02-26T14:45:48;9.00;99.90
14893;DHT22;7538;53.626;9.906;2024-02-26T14:48:15;9.00;99.90
14893;DHT22;7538;53.626;9.906;2024-02-26T14:50:41;9.00;99.90
14893;DHT22;7538;53.626;9.906;2024-02-26T14:53:08;9.00;99.90
14893;DHT22;7538;53.626;9.906;2024-02-26T14:55:36;8.90;99.90
14893;DHT22;7538;53.626;9.906;2024-02-26T14:58:04;8.90;99.90
14893;DHT22;7538;53.626;9.906;2024-02-26T15:00:31;8.80;99.90
14893;DHT22;7538;53.626;9.906;2024-02-26T15:03:02;8.60;99.90
14893;DHT22;7538;53.626;9.906;2024-02-26T15:05:29;8.50;99.90
14893;DHT22;7538;53.626;9.906;2024-02-26T15:07:56;8.40;99.90
14893;DHT22;7538;53.626;9.906;2024-02-26T15:10:24;8.30;99.90
14893;DHT22;7538;53.626;9.906;2024-02-26T15:12:52;8.30;99.90
14893;DHT22;7538;53.626;9.906;2024-02-26T15:15:20;8.20;99.90
14893;DHT22;7538;53.626;9.906;2024-02-26T15:17:47;8.20;99.90
14893;DHT22;7538;53.626;9.906;2024-02-26T15:20:14;8.10;99.90
14893;DHT22;7538;53.626;9.906;2024-02-26T15:22:41;8.10;99.90
14893;DHT22;7538;53.626;9.906;2024-02-26T15:25:08;8.20;99.90
14893;DHT22;7538;53.626;9.906;2024-02-26T15:27:35;8.20;99.90
14893;DHT22;7538;53.626;9.906;2024-02-26T15:30:05;8.20;99.90
14893;DHT22;7538;53.626;9.906;2024-02-26T15:32:32;8.20;99.90
14893;DHT22;7538;53.626;9.906;2024-02-26T15:34:59;8.20;99.90
14893;DHT22;7538;53.626;9.906;2024-02-26T15:37:28;8.20;99.90
14893;DHT22;7538;53.626;9.906;2024-02-26T15:39:54;8.10;99.90
14893;DHT22;7538;53.626;9.906;2024-02-26T15:42:21;8.00;99.90
14893;DHT22;7538;53.626;9.906;2024-02-26T15:44:51;8.00;99.90
14893;DHT22;7538;53.626;9.906;2024-02-26T15:47:19;8.00;99.90
14893;DHT22;7538;53.626;9.906;2024-02-26T15:49:47;8.00;99.90
14893;DHT22;7538;53.626;9.906;2024-02-26T15:52:13;8.00;99.90
14893;DHT22;7538;53.626;9.906;2024-02-26T15:54:40;8.00;99.90
14893;DHT22;7538;53.626;9.906;2024-02-26T15:57:07;7.90;99.90
14893;DHT22;7538;53.626;9.906;2024-02-26T15:59:35;7.70;99.90
14893;DHT22;7538;53.626;9.906;2024-02-26T16:02:02;7.60;99.90
14893;DHT22;7538;53.626;9.906;2024-02-26T16:04:30;7.50;99.90